Time;durP1;ratioP1;P1;durP2;ratioP2;P2;SDS_P1;SDS_P2;PMS_P1;PMS_P2;Temp;Humidity;BMP_temperature;BMP_pressure;BME280_temperature;BME280_humidity;BME280_pressure;Samples;Min_cycle;Max_cycle;Signal;HPM_P1;HPM_P2
2024/02/14 00:00:41;;;;;;;2.80;2.20;;;2.60;92.60;;;;;;5093786;28;20954;-85
2024/02/14 00:03:09;;;;;;;3.50;2.23;;;2.60;92.40;;;;;;5099273;28;20262;-85
2024/02/14 00:05:36;;;;;;;3.33;2.20;;;2.50;92.90;;;;;;5095212;28;20558;-85
2024/02/14 00:08:03;;;;;;;3.67;2.20;;;2.50;92.70;;;;;;5094182;28;20212;-84
2024/02/14 00:10:30;;;;;;;4.47;2.23;;;2.50;92.80;;;;;;5093620;28;20306;-85
2024/02/14 00:12:57;;;;;;;3.17;2.10;;;2.60;92.60;;;;;;5092200;28;20232;-85
2024/02/14 00:15:24;;;;;;;3.80;2.10;;;2.70;92.10;;;;;;5097746;28;20208;-84
2024/02/14 00:17:51;;;;;;;4.97;1.80;;;2.80;91.80;;;;;;5092089;28;20221;-84
2024/02/14 00:20:20;;;;;;;3.37;2.00;;;2.80;91.50;;;;;;5088432;28;20197;-84
2024/02/14 00:22:47;;;;;;;2.00;1.80;;;2.70;91.50;;;;;;5093578;28;20203;-85
2024/02/14 00:25:14;;;;;;;4.00;2.43;;;2.60;91.90;;;;;;5087674;28;20219;-85
2024/02/14 00:27:42;;;;;;;4.50;2.47;;;2.60;91.90;;;;;;5090840;28;20215;-85
2024/02/14 00:30:10;;;;;;;2.77;1.90;;;2.70;91.90;;;;;;5093364;28;20757;-85
2024/02/14 00:32:35;;;;;;;3.70;1.70;;;2.60;91.90;;;;;;5091975;28;20664;-84
2024/02/14 00:35:03;;;;;;;2.90;1.63;;;2.60;92.10;;;;;;5092258;28;20192;-85
2024/02/14 00:37:33;;;;;;;2.37;1.73;;;2.70;92.00;;;;;;5093122;28;20311;-85
2024/02/14 00:40:02;;;;;;;2.37;1.67;;;2.70;92.00;;;;;;5088513;28;20220;-85
2024/02/14 00:42:36;;;;;;;4.60;1.67;;;2.80;92.20;;;;;;5093250;28;20224;-87
2024/02/14 00:45:14;;;;;;;2.27;1.60;;;2.80;91.80;;;;;;5088924;28;20242;-86
2024/02/14 00:47:41;;;;;;;2.83;2.20;;;2.80;91.60;;;;;;5087069;28;20245;-87
2024/02/14 00:50:09;;;;;;;2.00;1.70;;;2.80;91.90;;;;;;5088091;28;20551;-85
2024/02/14 00:52:37;;;;;;;2.57;1.80;;;2.70;91.90;;;;;;5094748;28;20566;-85
2024/02/14 00:55:04;;;;;;;4.07;2.20;;;2.80;92.30;;;;;;5092292;28;20204;-85
2024/02/14 00:57:32;;;;;;;2.70;1.83;;;2.70;92.40;;;;;;5089446;28;20231;-85
2024/02/14 00:59:59;;;;;;;2.53;1.77;;;2.80;92.60;;;;;;5092845;28;20216;-85
2024/02/14 01:02:26;;;;;;;3.40;1.97;;;2.80;92.60;;;;;;5096857;28;20273;-85
2024/02/14 01:04:53;;;;;;;3.70;2.13;;;3.00;92.00;;;;;;5090200;28;20193;-85
2024/02/14 01:07:21;;;;;;;2.20;1.70;;;3.00;91.70;;;;;;5090700;28;20201;-85
2024/02/14 01:09:49;;;;;;;2.47;2.00;;;3.00;91.80;;;;;;5095759;28;20299;-85
2024/02/14 01:12:16;;;;;;;2.67;1.97;;;3.10;92.10;;;;;;5094975;28;20201;-85
2024/02/14 01:14:43;;;;;;;3.70;1.70;;;3.10;91.70;;;;;;5093265;28;20205;-85
2024/02/14 01:17:10;;;;;;;2.20;1.80;;;3.20;91.80;;;;;;5091696;28;20564;-85
2024/02/14 01:19:37;;;;;;;2.67;2.10;;;3.20;91.90;;;;;;5087589;28;20204;-85
2024/02/14 01:22:04;;;;;;;3.00;1.90;;;3.20;91.60;;;;;;5098226;28;20220;-85
2024/02/14 01:24:31;;;;;;;2.97;1.73;;;3.20;92.00;;;;;;5089951;28;20211;-85
2024/02/14 01:26:59;;;;;;;4.87;2.00;;;3.30;91.60;;;;;;5089669;28;20197;-85
2024/02/14 01:29:26;;;;;;;2.03;1.60;;;3.40;90.90;;;;;;5088809;28;20193;-85
2024/02/14 01:31:54;;;;;;;2.77;1.60;;;3.50;90.50;;;;;;5091084;28;20706;-85
2024/02/14 01:34:20;;;;;;;1.97;1.60;;;3.60;90.30;;;;;;5087922;28;20197;-85
2024/02/14 01:36:48;;;;;;;3.20;1.50;;;3.60;90.30;;;;;;5087721;28;20221;-85
2024/02/14 01:39:17;;;;;;;2.40;1.50;;;3.60;90.50;;;;;;5094806;28;20561;-85
2024/02/14 01:41:48;;;;;;;2.20;1.70;;;3.70;90.60;;;;;;5093431;28;20197;-85
2024/02/14 01:44:16;;;;;;;3.90;1.70;;;3.60;90.30;;;;;;5093894;28;20197;-86
2024/02/14 01:46:43;;;;;;;2.07;1.60;;;3.70;90.30;;;;;;5086444;28;20197;-86
2024/02/14 01:49:11;;;;;;;1.70;1.50;;;3.60;90.40;;;;;;5091070;28;20208;-85
2024/02/14 01:51:40;;;;;;;3.20;1.70;;;3.60;90.70;;;;;;5092587;28;20200;-85
2024/02/14 01:54:08;;;;;;;1.70;1.60;;;3.50;90.80;;;;;;5092924;28;20637;-85
2024/02/14 01:56:35;;;;;;;1.80;1.60;;;3.50;90.70;;;;;;5087610;28;20225;-85
2024/02/14 01:59:02;;;;;;;3.27;1.70;;;3.40;90.80;;;;;;5092481;28;20189;-85
2024/02/14 02:01:31;;;;;;;2.67;1.53;;;3.30;91.10;;;;;;5092368;28;20541;-85
2024/02/14 02:03:58;;;;;;;3.23;1.50;;;3.20;91.40;;;;;;5092130;28;20193;-85
2024/02/14 02:06:26;;;;;;;2.57;1.40;;;3.20;91.60;;;;;;5090306;28;20203;-85
2024/02/14 02:08:53;;;;;;;1.70;1.60;;;3.20;91.30;;;;;;5089259;28;20629;-85
2024/02/14 02:11:20;;;;;;;1.40;1.30;;;3.20;91.60;;;;;;5091786;28;20193;-85
2024/02/14 02:13:47;;;;;;;2.83;1.43;;;3.30;91.70;;;;;;5091270;28;20215;-85
2024/02/14 02:16:15;;;;;;;3.20;1.50;;;3.40;91.50;;;;;;5071045;28;20200;-86
2024/02/14 02:18:43;;;;;;;2.57;1.40;;;3.40;91.40;;;;;;5092478;28;20212;-85
2024/02/14 02:21:12;;;;;;;2.63;1.60;;;3.50;91.20;;;;;;5093206;28;20200;-85
2024/02/14 02:23:44;;;;;;;1.77;1.33;;;3.50;91.30;;;;;;5089695;28;20564;-85
2024/02/14 02:26:12;;;;;;;4.53;1.67;;;3.50;91.40;;;;;;5092367;28;20245;-85
2024/02/14 02:28:39;;;;;;;1.50;1.20;;;3.50;91.20;;;;;;5091460;28;20213;-87
2024/02/14 02:31:07;;;;;;;2.93;1.63;;;3.60;91.00;;;;;;5085488;28;20245;-88
2024/02/14 02:33:33;;;;;;;2.00;1.40;;;3.70;90.60;;;;;;5089654;28;20205;-88
2024/02/14 02:36:00;;;;;;;2.77;1.30;;;3.70;90.20;;;;;;5085720;28;20200;-87
2024/02/14 02:38:27;;;;;;;1.83;1.40;;;3.70;90.40;;;;;;5084657;28;20693;-87
2024/02/14 02:40:54;;;;;;;2.23;1.40;;;3.70;90.10;;;;;;5090941;28;20212;-84
2024/02/14 02:43:21;;;;;;;4.60;1.60;;;3.70;89.70;;;;;;5092692;28;20192;-84
2024/02/14 02:45:48;;;;;;;3.00;1.50;;;3.70;89.80;;;;;;5092599;28;20211;-85
2024/02/14 02:48:15;;;;;;;2.53;1.50;;;3.60;89.80;;;;;;5089200;28;20196;-87
2024/02/14 02:50:42;;;;;;;2.40;1.50;;;3.60;89.10;;;;;;5090787;28;20236;-84
2024/02/14 02:53:09;;;;;;;1.83;1.40;;;3.60;88.10;;;;;;5091989;28;20201;-87
2024/02/14 02:55:37;;;;;;;1.90;1.30;;;3.70;88.20;;;;;;5088446;28;20278;-87
2024/02/14 02:58:06;;;;;;;2.57;1.87;;;3.80;88.30;;;;;;5086571;28;20250;-87
2024/02/14 03:00:33;;;;;;;1.73;1.40;;;3.70;88.20;;;;;;5090017;28;20196;-85
2024/02/14 03:03:00;;;;;;;1.30;1.17;;;3.70;88.20;;;;;;5083773;28;20208;-85
2024/02/14 03:05:28;;;;;;;1.83;1.13;;;3.70;88.20;;;;;;5084706;28;20661;-85
2024/02/14 03:07:58;;;;;;;2.00;1.60;;;3.60;88.10;;;;;;5084928;28;20204;-85
2024/02/14 03:10:25;;;;;;;1.40;1.23;;;3.50;88.00;;;;;;5082777;28;20220;-86
2024/02/14 03:12:52;;;;;;;2.07;1.47;;;3.50;89.70;;;;;;5087117;28;20197;-85
2024/02/14 03:15:20;;;;;;;3.67;1.20;;;3.50;90.10;;;;;;5086706;28;20227;-85
2024/02/14 03:17:47;;;;;;;3.40;1.63;;;3.70;89.20;;;;;;5084452;28;20594;-86
2024/02/14 03:20:14;;;;;;;1.77;1.47;;;3.70;89.00;;;;;;5082630;28;20201;-85
2024/02/14 03:22:44;;;;;;;1.20;1.10;;;3.70;88.20;;;;;;5088661;28;20207;-86
2024/02/14 03:25:13;;;;;;;2.27;1.10;;;3.70;88.20;;;;;;5092614;28;20387;-86
2024/02/14 03:27:47;;;;;;;2.77;1.40;;;3.70;88.20;;;;;;5091491;28;20278;-87
2024/02/14 03:30:16;;;;;;;1.20;1.10;;;3.60;87.40;;;;;;5087571;28;20188;-86
2024/02/14 03:32:45;;;;;;;2.97;1.13;;;3.60;87.20;;;;;;5095225;28;20261;-86
2024/02/14 03:35:13;;;;;;;4.67;1.63;;;3.70;87.00;;;;;;5088651;28;20200;-88
2024/02/14 03:37:40;;;;;;;3.00;1.67;;;3.60;87.40;;;;;;5089709;28;20224;-86
2024/02/14 03:40:09;;;;;;;2.03;1.30;;;3.70;87.80;;;;;;5085634;28;20744;-86
2024/02/14 03:42:39;;;;;;;1.40;1.20;;;3.70;87.80;;;;;;5089805;28;20200;-87
2024/02/14 03:45:07;;;;;;;1.87;1.20;;;3.70;87.40;;;;;;5082327;28;20200;-85
2024/02/14 03:47:34;;;;;;;2.87;1.60;;;3.70;88.20;;;;;;5090621;28;20207;-86
2024/02/14 03:50:04;;;;;;;1.77;1.33;;;3.70;88.20;;;;;;5089439;28;20284;-87
2024/02/14 03:52:32;;;;;;;1.30;1.20;;;3.70;88.20;;;;;;5093246;28;20230;-88
2024/02/14 03:54:59;;;;;;;3.10;1.63;;;3.70;87.90;;;;;;5090249;28;20193;-85
2024/02/14 03:57:28;;;;;;;1.40;1.30;;;3.80;86.60;;;;;;5093261;28;20296;-89
2024/02/14 03:59:55;;;;;;;2.57;1.37;;;3.70;85.90;;;;;;5086160;28;20254;-86
2024/02/14 04:02:23;;;;;;;2.60;1.43;;;3.60;86.20;;;;;;5091978;28;20196;-85
2024/02/14 04:04:50;;;;;;;1.67;1.30;;;3.50;86.00;;;;;;5089991;28;20630;-84
2024/02/14 04:07:18;;;;;;;1.10;1.00;;;3.40;88.00;;;;;;5085069;28;20223;-85
2024/02/14 04:09:45;;;;;;;1.40;1.30;;;3.50;87.20;;;;;;5098367;28;20206;-85
2024/02/14 04:12:13;;;;;;;1.67;1.40;;;3.60;85.80;;;;;;5091480;28;20201;-85
2024/02/14 04:14:40;;;;;;;2.13;1.50;;;3.50;85.30;;;;;;5087593;28;20208;-85
2024/02/14 04:17:08;;;;;;;2.00;1.23;;;3.50;85.60;;;;;;5090528;28;20193;-86
2024/02/14 04:19:35;;;;;;;3.57;1.50;;;3.40;86.00;;;;;;5087420;28;20236;-85
2024/02/14 04:22:02;;;;;;;1.73;1.40;;;3.30;86.90;;;;;;5088668;28;20205;-84
2024/02/14 04:24:30;;;;;;;2.40;1.50;;;3.20;87.80;;;;;;5093749;28;20204;-85
2024/02/14 04:26:57;;;;;;;2.30;1.30;;;3.00;87.80;;;;;;5089621;28;20197;-85
2024/02/14 04:29:24;;;;;;;2.80;1.50;;;2.90;87.70;;;;;;5091073;28;20193;-84
2024/02/14 04:31:52;;;;;;;1.53;1.20;;;2.90;87.70;;;;;;5093643;28;20207;-85
2024/02/14 04:34:19;;;;;;;2.77;1.60;;;2.80;87.60;;;;;;5091632;28;20250;-84
2024/02/14 04:36:46;;;;;;;1.30;1.10;;;2.90;87.70;;;;;;5093147;28;20258;-84
2024/02/14 04:39:13;;;;;;;1.30;1.20;;;2.90;87.70;;;;;;5088384;28;21042;-85
2024/02/14 04:41:41;;;;;;;2.53;1.50;;;3.00;87.70;;;;;;5094443;28;20204;-85
2024/02/14 04:44:08;;;;;;;1.47;1.20;;;3.10;87.80;;;;;;5090396;28;20468;-85
2024/02/14 04:46:35;;;;;;;1.83;1.40;;;3.20;87.80;;;;;;5093083;28;20197;-85
2024/02/14 04:49:03;;;;;;;1.90;1.50;;;3.20;87.90;;;;;;5093433;28;20204;-85
2024/02/14 04:51:30;;;;;;;3.63;1.33;;;3.20;87.80;;;;;;5094590;28;20207;-88
2024/02/14 04:53:58;;;;;;;3.17;1.50;;;3.40;88.00;;;;;;5092647;28;20561;-86
2024/02/14 04:56:26;;;;;;;3.23;1.80;;;3.40;88.00;;;;;;5091451;28;20212;-86
2024/02/14 04:58:54;;;;;;;2.07;1.60;;;3.40;88.00;;;;;;5095678;28;20221;-87
2024/02/14 05:01:25;;;;;;;2.67;1.70;;;3.50;88.00;;;;;;5091651;28;20608;-87
2024/02/14 05:03:52;;;;;;;2.13;1.63;;;3.60;87.50;;;;;;5093018;28;20196;-87
2024/02/14 05:06:19;;;;;;;2.37;1.67;;;3.70;86.30;;;;;;5086163;28;20197;-87
2024/02/14 05:08:48;;;;;;;3.27;1.70;;;3.80;86.40;;;;;;5092062;28;20196;-87
2024/02/14 05:11:15;;;;;;;2.30;1.60;;;4.00;85.10;;;;;;5094794;28;20282;-87
2024/02/14 05:13:43;;;;;;;5.30;1.73;;;4.00;84.90;;;;;;5081300;28;20212;-88
2024/02/14 05:16:11;;;;;;;2.50;1.60;;;4.00;83.30;;;;;;5082385;28;20664;-86
2024/02/14 05:18:38;;;;;;;3.30;1.30;;;4.00;83.50;;;;;;5088678;28;20227;-89
2024/02/14 05:21:07;;;;;;;2.13;1.30;;;4.00;82.90;;;;;;5087138;28;20193;-87
2024/02/14 05:23:34;;;;;;;1.73;1.40;;;4.00;81.70;;;;;;5090758;28;20649;-86
2024/02/14 05:26:01;;;;;;;2.03;1.63;;;4.00;81.60;;;;;;5093678;28;20196;-88
2024/02/14 05:28:28;;;;;;;2.70;1.30;;;4.00;82.70;;;;;;5091866;28;20409;-86
2024/02/14 05:30:55;;;;;;;2.50;1.73;;;3.90;82.70;;;;;;5093451;28;20196;-85
2024/02/14 05:33:23;;;;;;;2.60;1.50;;;3.80;82.50;;;;;;5078544;28;20202;-87
2024/02/14 05:35:50;;;;;;;1.87;1.50;;;3.70;83.10;;;;;;5089592;28;20748;-87
2024/02/14 05:38:19;;;;;;;3.47;1.30;;;3.60;82.70;;;;;;5093112;28;20212;-87
2024/02/14 05:40:46;;;;;;;2.27;1.87;;;3.60;81.70;;;;;;5087409;28;20201;-87
2024/02/14 05:43:13;;;;;;;2.00;1.30;;;3.50;82.40;;;;;;5093450;28;20192;-86
2024/02/14 05:45:40;;;;;;;2.60;1.30;;;3.50;82.40;;;;;;5092855;28;20201;-87
2024/02/14 05:48:07;;;;;;;3.47;1.60;;;3.60;82.30;;;;;;5092704;28;20685;-88
2024/02/14 05:50:35;;;;;;;1.80;1.43;;;3.80;82.30;;;;;;5091604;28;20287;-87
2024/02/14 05:53:02;;;;;;;2.63;1.50;;;3.90;81.60;;;;;;5091157;28;20193;-87
2024/02/14 05:55:29;;;;;;;2.17;1.30;;;3.90;81.90;;;;;;5092177;28;20216;-88
2024/02/14 05:57:57;;;;;;;1.87;1.30;;;3.90;82.50;;;;;;5090905;28;20224;-87
2024/02/14 06:00:24;;;;;;;1.60;1.30;;;3.90;84.00;;;;;;5094357;28;20211;-87
2024/02/14 06:02:51;;;;;;;2.30;1.70;;;4.00;82.40;;;;;;5090498;28;20535;-87
2024/02/14 06:05:18;;;;;;;2.10;1.57;;;4.20;80.00;;;;;;5089747;28;20196;-87
2024/02/14 06:07:47;;;;;;;2.57;1.80;;;4.20;81.30;;;;;;5089680;28;20287;-88
2024/02/14 06:10:14;;;;;;;1.53;1.33;;;4.30;78.70;;;;;;5093029;28;20660;-86
2024/02/14 06:12:42;;;;;;;4.50;1.90;;;4.40;77.60;;;;;;5092746;28;20189;-87
2024/02/14 06:15:10;;;;;;;3.27;1.67;;;4.30;79.00;;;;;;5092319;28;20295;-87
2024/02/14 06:17:37;;;;;;;2.20;1.53;;;4.40;77.60;;;;;;5092129;28;20201;-87
2024/02/14 06:20:07;;;;;;;3.70;1.50;;;4.40;77.40;;;;;;5091097;28;20220;-87
2024/02/14 06:22:34;;;;;;;3.03;1.83;;;4.30;77.90;;;;;;5087736;28;20208;-87
2024/02/14 06:25:04;;;;;;;4.00;1.40;;;4.30;77.80;;;;;;5093039;28;20200;-86
2024/02/14 06:27:32;;;;;;;3.83;1.83;;;4.40;76.90;;;;;;5087123;28;20610;-90
2024/02/14 06:29:59;;;;;;;3.13;1.67;;;4.40;77.50;;;;;;5098249;28;20201;-86
2024/02/14 06:32:26;;;;;;;1.90;1.50;;;4.50;77.20;;;;;;5098333;28;20189;-88
2024/02/14 06:34:53;;;;;;;1.97;1.50;;;4.40;77.50;;;;;;5087569;28;20559;-87
2024/02/14 06:37:19;;;;;;;1.93;1.50;;;4.50;76.70;;;;;;5086642;28;20193;-87
2024/02/14 06:39:48;;;;;;;2.57;1.43;;;4.50;76.70;;;;;;5092068;28;20236;-87
2024/02/14 06:42:16;;;;;;;3.53;1.60;;;4.60;75.70;;;;;;5093266;28;20196;-86
2024/02/14 06:44:43;;;;;;;3.30;1.50;;;4.70;75.00;;;;;;5088810;28;20204;-86
2024/02/14 06:47:10;;;;;;;3.17;1.70;;;4.60;75.90;;;;;;5090444;28;20680;-87
2024/02/14 06:49:37;;;;;;;3.20;1.60;;;4.70;73.60;;;;;;5082588;28;20200;-87
2024/02/14 06:52:05;;;;;;;1.93;1.53;;;4.60;71.70;;;;;;5089782;28;20601;-87
2024/02/14 06:54:32;;;;;;;4.83;1.67;;;4.70;72.10;;;;;;5092231;28;20196;-90
2024/02/14 06:56:59;;;;;;;5.03;1.80;;;4.70;73.90;;;;;;5084564;28;20217;-90
2024/02/14 06:59:28;;;;;;;5.70;1.80;;;4.50;75.50;;;;;;5095075;28;20212;-91
2024/02/14 07:01:55;;;;;;;4.50;1.70;;;4.50;75.50;;;;;;5087603;28;20207;-90
2024/02/14 07:04:25;;;;;;;7.93;1.93;;;4.60;75.10;;;;;;5083571;28;20241;-89
2024/02/14 07:06:52;;;;;;;3.43;1.70;;;4.70;76.10;;;;;;5085355;28;20550;-87
2024/02/14 07:09:19;;;;;;;7.47;1.70;;;4.90;74.30;;;;;;5088584;28;20197;-85
2024/02/14 07:11:46;;;;;;;5.57;1.80;;;4.90;75.00;;;;;;5087296;28;20196;-88
2024/02/14 07:14:13;;;;;;;6.47;2.00;;;5.10;73.50;;;;;;5087650;28;20266;-89
2024/02/14 07:16:42;;;;;;;4.03;1.80;;;5.00;74.40;;;;;;5081042;28;20209;-90
2024/02/14 07:19:09;;;;;;;5.67;1.77;;;5.00;73.90;;;;;;5087290;28;20216;-90
2024/02/14 07:21:37;;;;;;;6.50;1.70;;;4.90;69.60;;;;;;5088106;28;20198;-91
2024/02/14 07:24:04;;;;;;;4.27;1.70;;;5.00;66.50;;;;;;5088777;28;20197;-89
2024/02/14 07:26:31;;;;;;;2.50;1.40;;;5.10;64.60;;;;;;5093037;28;20201;-86
2024/02/14 07:28:58;;;;;;;1.40;1.30;;;5.20;62.00;;;;;;5080842;28;20201;-95
2024/02/14 07:31:30;;;;;;;4.65;1.60;;;5.40;62.20;;;;;;5088631;28;20558;-90
